Time;durP1;ratioP1;P1;durP2;ratioP2;P2;SDS_P1;SDS_P2;PMS_P1;PMS_P2;Temp;Humidity;BMP_temperature;BMP_pressure;BME280_temperature;BME280_humidity;BME280_pressure;Samples;Min_cycle;Max_cycle;Signal;HPM_P1;HPM_P2
2023/05/06 00:00:17;;;;;;;2.15;1.75;;;;;;;11.60;45.75;95566.28;4971744;28;20033;-66
2023/05/06 00:02:42;;;;;;;1.70;1.50;;;;;;;11.46;45.54;95560.75;4970372;28;20047;-65
2023/05/06 00:05:08;;;;;;;2.50;1.63;;;;;;;11.60;45.44;95555.63;4968241;28;20089;-65
2023/05/06 00:07:33;;;;;;;1.83;1.40;;;;;;;11.75;45.11;95563.59;4971297;28;20573;-66
2023/05/06 00:09:59;;;;;;;2.08;1.80;;;;;;;11.49;45.00;95554.25;4971560;28;20042;-66
2023/05/06 00:12:27;;;;;;;3.13;1.67;;;;;;;11.54;44.95;95554.53;4971109;28;20030;-66
2023/05/06 00:14:55;;;;;;;3.67;1.58;;;;;;;11.61;44.83;95551.94;4970972;28;20073;-66
2023/05/06 00:17:21;;;;;;;3.47;1.73;;;;;;;11.58;44.76;95558.47;4969233;28;20121;-65
2023/05/06 00:19:46;;;;;;;1.92;1.50;;;;;;;11.54;44.83;95554.53;4971534;28;20105;-66
2023/05/06 00:22:12;;;;;;;2.08;1.80;;;;;;;11.73;44.34;95546.97;4968671;28;20030;-66
2023/05/06 00:24:37;;;;;;;2.10;1.58;;;;;;;11.79;44.35;95545.38;4972038;28;20042;-66
2023/05/06 00:27:03;;;;;;;3.03;1.58;;;;;;;11.80;43.94;95547.84;4972389;28;20046;-66
2023/05/06 00:29:31;;;;;;;1.75;1.50;;;;;;;11.75;44.02;95532.41;4967362;28;20384;-66
2023/05/06 00:31:56;;;;;;;2.22;1.70;;;;;;;11.67;44.21;95540.53;4973079;28;20030;-66
2023/05/06 00:34:21;;;;;;;2.95;1.70;;;;;;;11.46;44.58;95534.09;4970487;28;20479;-66
2023/05/06 00:36:47;;;;;;;2.88;1.52;;;;;;;11.29;45.10;95546.00;4969345;28;20034;-65
2023/05/06 00:39:12;;;;;;;2.72;1.48;;;;;;;11.48;44.48;95537.44;4971625;28;20015;-66
2023/05/06 00:41:37;;;;;;;1.40;1.15;;;;;;;11.54;44.29;95541.19;4971377;28;20120;-65
2023/05/06 00:44:03;;;;;;;2.33;1.50;;;;;;;11.51;44.62;95536.22;4969701;28;20042;-66
2023/05/06 00:46:28;;;;;;;3.83;1.40;;;;;;;11.45;44.62;95536.94;4970905;28;20112;-66
2023/05/06 00:48:54;;;;;;;1.75;1.40;;;;;;;11.42;44.63;95540.00;4971021;28;20355;-65
2023/05/06 00:51:19;;;;;;;3.42;1.45;;;;;;;11.46;44.54;95536.78;4940138;28;20019;-66
2023/05/06 00:53:47;;;;;;;1.52;1.40;;;;;;;11.48;44.48;95539.25;4953871;28;20101;-66
2023/05/06 00:56:13;;;;;;;2.60;1.42;;;;;;;11.41;44.65;95541.00;4971719;28;20503;-66
2023/05/06 00:58:38;;;;;;;1.60;1.40;;;;;;;11.25;44.88;95537.53;4950638;28;20031;-66
2023/05/06 01:01:04;;;;;;;1.92;1.40;;;;;;;11.28;44.83;95536.34;4967834;28;20697;-67
2023/05/06 01:03:31;;;;;;;2.97;1.42;;;;;;;11.18;44.75;95537.44;4966434;23;20091;-93
2023/05/06 01:06:18;;;;;;;1.67;1.58;;;;;;;10.66;46.31;95529.28;4913247;28;20499;-94
2023/05/06 01:09:21;;;;;;;2.63;1.70;;;;;;;10.36;47.41;95524.72;4910216;28;20079;-93
2023/05/06 01:12:17;;;;;;;2.70;1.60;;;;;;;10.28;47.33;95531.91;4938259;28;20111;-92
2023/05/06 01:14:56;;;;;;;3.22;1.80;;;;;;;9.96;48.29;95531.94;4929212;28;20524;-93
2023/05/06 01:17:23;;;;;;;3.13;1.80;;;;;;;9.98;48.40;95527.28;4912870;28;20046;-94
2023/05/06 01:19:48;;;;;;;3.67;1.70;;;;;;;10.10;47.34;95533.06;4892888;28;20133;-96
2023/05/06 01:22:14;;;;;;;1.50;1.40;;;;;;;9.91;47.45;95523.66;4901532;28;20050;-94
2023/05/06 01:24:41;;;;;;;2.40;1.80;;;;;;;9.59;48.61;95535.13;4918273;28;20403;-95
2023/05/06 01:27:06;;;;;;;2.58;1.70;;;;;;;9.42;49.75;95533.56;4899834;28;20035;-94
2023/05/06 01:29:32;;;;;;;3.13;1.80;;;;;;;9.75;48.64;95522.75;4895780;28;20077;-93
2023/05/06 01:32:06;;;;;;;2.80;1.60;;;;;;;9.96;48.20;95529.28;4918617;28;20019;-95
2023/05/06 01:34:41;;;;;;;2.58;1.80;;;;;;;10.02;48.10;95527.75;4896312;28;20042;-95
2023/05/06 01:37:11;;;;;;;1.77;1.65;;;;;;;9.80;48.67;95533.69;4897172;28;20039;-94
2023/05/06 01:39:37;;;;;;;1.98;1.73;;;;;;;9.89;48.33;95539.00;4919166;28;20031;-95
2023/05/06 01:42:02;;;;;;;2.75;1.65;;;;;;;10.02;47.53;95533.06;4902280;28;20054;-94
2023/05/06 01:44:31;;;;;;;1.58;1.48;;;;;;;10.06;46.35;95535.22;4902923;28;20042;-93
2023/05/06 01:46:57;;;;;;;1.30;1.23;;;;;;;10.03;45.95;95534.75;4915753;28;20184;-93
2023/05/06 01:49:22;;;;;;;1.20;1.10;;;;;;;9.92;45.32;95538.59;4898378;28;20449;-95
2023/05/06 01:51:48;;;;;;;1.55;1.45;;;;;;;9.77;45.02;95531.41;4892378;28;20233;-94
2023/05/06 01:54:14;;;;;;;1.70;1.60;;;;;;;9.66;44.56;95531.78;4901118;28;20031;-92
2023/05/06 01:56:39;;;;;;;1.48;1.30;;;;;;;9.50;44.58;95530.03;4901937;28;20041;-94
2023/05/06 01:59:05;;;;;;;1.85;1.42;;;;;;;9.41;45.07;95542.53;4897015;28;20180;-95
2023/05/06 02:01:30;;;;;;;1.70;1.60;;;;;;;9.27;44.95;95544.06;4897233;28;20043;-94
2023/05/06 02:03:56;;;;;;;2.08;1.67;;;;;;;9.11;45.21;95539.66;4898297;29;20052;-95
2023/05/06 02:06:21;;;;;;;1.85;1.70;;;;;;;9.05;45.65;95538.50;4886367;29;20073;-94
2023/05/06 02:08:47;;;;;;;4.32;1.90;;;;;;;9.00;45.90;95541.66;4871609;29;20193;-94
2023/05/06 02:11:13;;;;;;;2.05;1.88;;;;;;;8.94;45.47;95539.66;4881022;29;20038;-94
2023/05/06 02:13:38;;;;;;;2.10;1.90;;;;;;;8.85;45.96;95535.38;4881484;29;20031;-94
2023/05/06 02:16:04;;;;;;;4.70;2.10;;;;;;;8.76;46.28;95539.84;4901598;29;20480;-95
2023/05/06 02:18:30;;;;;;;2.85;2.00;;;;;;;8.72;46.51;95543.84;4885414;29;20102;-94
2023/05/06 02:20:55;;;;;;;3.00;1.80;;;;;;;8.71;46.50;95545.69;4901223;29;20031;-93
2023/05/06 02:23:20;;;;;;;3.22;1.98;;;;;;;8.66;46.58;95551.50;4903114;29;20400;-94
2023/05/06 02:25:46;;;;;;;2.22;1.90;;;;;;;8.64;46.55;95550.81;4885484;29;20593;-93
2023/05/06 02:28:11;;;;;;;2.53;1.85;;;;;;;8.62;46.81;95549.31;4883960;29;20047;-93
2023/05/06 02:30:37;;;;;;;2.53;1.65;;;;;;;8.60;46.56;95554.00;4916082;29;20075;-94
2023/05/06 02:33:10;;;;;;;2.97;1.77;;;;;;;8.52;46.10;95546.84;4885257;29;20047;-93
2023/05/06 02:35:35;;;;;;;1.60;1.50;;;;;;;8.49;45.71;95555.13;4917012;29;20046;-92
2023/05/06 02:38:01;;;;;;;2.95;1.77;;;;;;;8.45;45.44;95557.31;4885317;29;20031;-94
2023/05/06 02:40:29;;;;;;;2.28;1.50;;;;;;;8.36;45.28;95548.50;4898300;29;20353;-94
2023/05/06 02:42:54;;;;;;;1.70;1.43;;;;;;;8.27;45.75;95550.31;4901311;29;20039;-93
2023/05/06 02:45:20;;;;;;;1.45;1.35;;;;;;;8.23;45.73;95548.19;4902501;29;20291;-95
2023/05/06 02:47:48;;;;;;;1.80;1.40;;;;;;;8.23;45.54;95549.00;4888571;29;20027;-94
2023/05/06 02:50:13;;;;;;;3.13;1.60;;;;;;;8.16;45.19;95548.03;4917099;29;20039;-94
2023/05/06 02:52:39;;;;;;;2.15;1.70;;;;;;;8.07;45.43;95533.91;4885702;29;20031;-93
2023/05/06 02:55:05;;;;;;;2.05;1.40;;;;;;;8.02;45.48;95534.41;4920313;29;20062;-94
2023/05/06 02:57:32;;;;;;;1.80;1.70;;;;;;;7.96;45.64;95540.34;4900893;29;20051;-94
2023/05/06 02:59:58;;;;;;;2.20;1.55;;;;;;;8.01;46.19;95540.69;4907057;29;20511;-95
2023/05/06 03:02:34;;;;;;;1.63;1.52;;;;;;;8.03;46.26;95540.53;4880168;29;20040;-96
2023/05/06 03:05:00;;;;;;;2.00;1.80;;;;;;;8.02;46.72;95537.06;4924007;29;20095;-93
2023/05/06 03:07:25;;;;;;;1.92;1.70;;;;;;;8.10;46.06;95548.66;4892759;29;20062;-93
2023/05/06 03:09:51;;;;;;;1.73;1.58;;;;;;;8.17;45.91;95549.66;4920565;29;20047;-94
2023/05/06 03:12:16;;;;;;;2.53;1.50;;;;;;;8.17;45.69;95552.31;4888055;29;20031;-93
2023/05/06 03:14:42;;;;;;;2.80;1.65;;;;;;;8.23;45.66;95551.66;4887344;29;20039;-93
2023/05/06 03:17:07;;;;;;;1.67;1.48;;;;;;;8.33;45.62;95548.03;4934718;28;20527;-93
2023/05/06 03:19:33;;;;;;;3.42;1.50;;;;;;;8.37;45.52;95547.50;4908021;28;20030;-94
2023/05/06 03:21:58;;;;;;;2.50;1.40;;;;;;;8.42;46.24;95542.56;4903156;28;20456;-95
2023/05/06 03:24:24;;;;;;;1.50;1.40;;;;;;;8.51;45.87;95546.03;4920275;28;20328;-94
2023/05/06 03:26:49;;;;;;;4.32;1.58;;;;;;;8.65;45.68;95549.00;4903626;28;20046;-94
2023/05/06 03:29:15;;;;;;;1.90;1.55;;;;;;;8.73;45.61;95541.03;4898218;29;20031;-94
2023/05/06 03:31:40;;;;;;;1.92;1.35;;;;;;;8.82;45.81;95544.50;4918222;29;20042;-94
2023/05/06 03:34:06;;;;;;;1.60;1.45;;;;;;;8.90;45.42;95546.28;4899975;28;20433;-94
2023/05/06 03:36:32;;;;;;;4.13;1.52;;;;;;;8.93;45.67;95543.31;4917619;28;20035;-95
2023/05/06 03:38:59;;;;;;;2.25;1.45;;;;;;;9.05;45.79;95541.97;4906372;28;20051;-93
2023/05/06 03:41:25;;;;;;;2.33;1.48;;;;;;;9.13;45.64;95540.31;4906270;28;20412;-93
2023/05/06 03:43:51;;;;;;;2.38;1.40;;;;;;;9.20;45.22;95535.97;4905546;28;20035;-94
2023/05/06 03:46:16;;;;;;;2.28;1.88;;;;;;;9.16;45.37;95538.16;4905573;28;20047;-94
2023/05/06 03:48:42;;;;;;;1.67;1.58;;;;;;;9.22;44.76;95539.28;4902063;28;20038;-94
2023/05/06 03:51:08;;;;;;;2.92;1.85;;;;;;;9.25;45.26;95533.63;4903586;28;20035;-94
2023/05/06 03:53:33;;;;;;;3.17;1.58;;;;;;;9.28;44.82;95537.78;4903588;28;20573;-93
2023/05/06 03:56:00;;;;;;;3.30;1.90;;;;;;;9.28;44.78;95543.09;4902653;28;20027;-94
2023/05/06 03:58:26;;;;;;;2.67;1.60;;;;;;;9.24;44.73;95536.47;4920488;28;20046;-93
2023/05/06 04:00:51;;;;;;;3.47;1.75;;;;;;;9.20;44.79;95538.63;4897943;28;20142;-93
2023/05/06 04:03:17;;;;;;;2.45;1.70;;;;;;;9.20;44.47;95535.97;4899201;29;20261;-93
2023/05/06 04:05:42;;;;;;;1.80;1.67;;;;;;;9.17;45.09;95541.63;4871776;29;20043;-93
2023/05/06 04:08:08;;;;;;;1.80;1.60;;;;;;;9.16;44.81;95537.31;4872638;29;20090;-93
2023/05/06 04:10:38;;;;;;;1.70;1.60;;;;;;;9.08;44.63;95536.34;4886871;29;20118;-93
2023/05/06 04:13:03;;;;;;;3.67;1.90;;;;;;;8.94;44.92;95542.31;4884505;29;20643;-93
2023/05/06 04:15:31;;;;;;;1.60;1.50;;;;;;;8.92;44.74;95545.16;4888859;29;20035;-93
2023/05/06 04:17:59;;;;;;;10.48;1.90;;;;;;;9.01;44.86;95537.19;4886196;29;20161;-93
2023/05/06 04:20:24;;;;;;;2.83;1.70;;;;;;;9.07;44.90;95542.66;4877862;29;20531;-94
2023/05/06 04:22:50;;;;;;;2.28;2.05;;;;;;;9.03;45.32;95535.19;4874622;29;20301;-94
2023/05/06 04:25:18;;;;;;;2.60;1.90;;;;;;;8.90;46.17;95536.50;4878223;29;20043;-92
2023/05/06 04:27:44;;;;;;;2.78;1.80;;;;;;;8.95;46.15;95536.03;4915776;29;20130;-93
2023/05/06 04:30:13;;;;;;;1.50;1.40;;;;;;;9.06;45.82;95540.16;4900884;29;20269;-94
2023/05/06 04:32:39;;;;;;;2.22;1.65;;;;;;;9.18;45.61;95538.78;4877477;29;20042;-94
2023/05/06 04:35:13;;;;;;;2.35;1.90;;;;;;;9.26;45.44;95543.25;4876161;29;20223;-94
2023/05/06 04:37:40;;;;;;;4.25;2.00;;;;;;;9.37;45.51;95549.19;4901087;29;20227;-93
2023/05/06 04:40:08;;;;;;;2.78;2.28;;;;;;;9.58;45.05;95545.94;4881465;29;20053;-93
2023/05/06 04:42:33;;;;;;;5.95;2.60;;;;;;;9.65;44.69;95549.56;4878649;29;20505;-95
2023/05/06 04:44:59;;;;;;;3.42;2.67;;;;;;;9.63;44.99;95553.41;4894266;28;20035;-93
2023/05/06 04:47:25;;;;;;;5.00;3.22;;;;;;;9.71;44.71;95550.69;4902276;29;20337;-94
2023/05/06 04:49:50;;;;;;;7.03;4.30;;;;;;;9.72;44.94;95557.66;4903473;29;20705;-93
2023/05/06 04:52:18;;;;;;;6.72;4.20;;;;;;;9.70;44.61;95555.19;4902185;29;20023;-95
2023/05/06 04:54:43;;;;;;;12.80;5.97;;;;;;;9.27;46.86;95567.97;4880367;29;20110;-95
2023/05/06 04:57:12;;;;;;;7.88;5.32;;;;;;;9.37;46.39;95567.78;4894442;29;20461;-93
2023/05/06 04:59:37;;;;;;;7.07;4.10;;;;;;;9.74;45.14;95568.97;4882730;29;20066;-93
2023/05/06 05:02:03;;;;;;;7.32;4.50;;;;;;;9.90;44.52;95581.34;4880199;29;20435;-94
2023/05/06 05:04:28;;;;;;;7.25;5.13;;;;;;;10.06;44.63;95577.78;4893624;28;20102;-95
2023/05/06 05:06:54;;;;;;;7.13;4.25;;;;;;;10.08;45.25;95581.13;4906798;28;20042;-93
2023/05/06 05:09:19;;;;;;;5.45;3.20;;;;;;;10.09;46.00;95577.44;4904157;28;20148;-94
2023/05/06 05:11:45;;;;;;;4.53;3.10;;;;;;;10.18;45.81;95588.03;4909301;28;20035;-93
2023/05/06 05:14:10;;;;;;;5.45;3.20;;;;;;;10.21;46.27;95585.84;4902350;28;20046;-93
2023/05/06 05:16:36;;;;;;;3.75;2.85;;;;;;;10.32;46.18;95587.28;4908687;28;20023;-93
2023/05/06 05:19:01;;;;;;;5.75;3.65;;;;;;;10.47;46.09;95584.66;4923169;28;20046;-93
2023/05/06 05:21:27;;;;;;;5.25;4.10;;;;;;;10.59;45.43;95590.41;4908322;28;20500;-94
2023/05/06 05:23:52;;;;;;;6.00;4.25;;;;;;;10.67;45.37;95584.19;4904803;28;20031;-94
2023/05/06 05:26:17;;;;;;;5.43;3.78;;;;;;;10.77;45.41;95591.91;4908219;28;20061;-93
2023/05/06 05:28:43;;;;;;;6.97;3.45;;;;;;;10.89;45.40;95589.66;4919556;28;20038;-95
2023/05/06 05:31:08;;;;;;;4.47;3.15;;;;;;;11.03;45.46;95588.03;4908999;28;20042;-93
2023/05/06 05:33:34;;;;;;;5.57;2.95;;;;;;;11.17;45.22;95597.06;4906119;28;20039;-95
2023/05/06 05:35:59;;;;;;;3.33;2.85;;;;;;;11.32;45.07;95594.41;4908147;28;20065;-93
2023/05/06 05:38:25;;;;;;;2.75;2.53;;;;;;;11.44;45.20;95594.78;4923696;28;20031;-93
2023/05/06 05:40:50;;;;;;;4.15;2.55;;;;;;;11.60;44.85;95604.41;4908260;28;20046;-94
2023/05/06 05:43:16;;;;;;;4.65;2.60;;;;;;;11.76;44.97;95597.22;4908892;28;20034;-94
2023/05/06 05:45:42;;;;;;;4.93;2.90;;;;;;;12.05;44.31;95600.88;4894206;28;20054;-95
2023/05/06 05:48:07;;;;;;;4.07;2.80;;;;;;;12.13;44.23;95600.78;4924917;28;20030;-93
2023/05/06 05:50:33;;;;;;;5.88;3.60;;;;;;;12.07;43.83;95598.88;4906659;28;20345;-94
2023/05/06 05:52:58;;;;;;;4.63;3.30;;;;;;;12.14;44.26;95602.44;4908279;28;20102;-93
2023/05/06 05:55:23;;;;;;;4.55;3.20;;;;;;;12.48;43.48;95599.31;4908495;28;20026;-92
2023/05/06 05:57:49;;;;;;;5.45;3.15;;;;;;;11.98;44.32;95607.97;4923948;28;20046;-93
2023/05/06 06:00:15;;;;;;;4.50;3.17;;;;;;;11.20;46.62;95609.19;4925009;28;20395;-94
2023/05/06 06:02:40;;;;;;;4.15;3.25;;;;;;;11.30;46.98;95609.78;4921228;28;20363;-93
2023/05/06 06:05:06;;;;;;;4.30;2.80;;;;;;;11.72;46.15;95606.63;4907958;28;20300;-95
2023/05/06 06:07:32;;;;;;;4.88;3.00;;;;;;;12.49;43.92;95608.94;4905708;28;20269;-94
2023/05/06 06:09:57;;;;;;;3.55;2.80;;;;;;;12.96;42.87;95600.53;4925674;28;20114;-94
2023/05/06 06:12:23;;;;;;;4.22;2.88;;;;;;;13.17;42.25;95597.84;4941585;28;20057;-94
2023/05/06 06:14:51;;;;;;;5.28;3.00;;;;;;;13.09;42.27;95606.00;4916252;28;20177;-96
2023/05/06 06:17:21;;;;;;;3.60;2.63;;;;;;;13.29;41.75;95606.13;4949908;28;20038;-96
2023/05/06 06:19:47;;;;;;;3.60;2.67;;;;;;;13.27;41.95;95608.19;4922587;28;20476;-94
2023/05/06 06:22:13;;;;;;;4.85;3.00;;;;;;;13.43;41.00;95609.72;4901717;28;20137;-95
2023/05/06 06:24:38;;;;;;;5.25;3.10;;;;;;;12.99;42.96;95614.34;4902336;28;20691;-95
2023/05/06 06:27:04;;;;;;;3.13;2.53;;;;;;;13.41;42.23;95613.63;4906872;28;20039;-94
2023/05/06 06:29:30;;;;;;;5.95;3.17;;;;;;;12.98;43.01;95617.22;4940935;28;20235;-95
2023/05/06 06:32:18;;;;;;;3.90;2.85;;;;;;;13.35;42.66;95611.72;4941644;28;20043;-94
2023/05/06 06:35:30;;;;;;;;;;;;;;;;;;;;;
2023/05/06 06:38:46;;;;;;;4.25;3.03;;;;;;;14.04;40.84;95609.22;4933939;29;20048;-96
2023/05/06 06:44:36;;;;;;;4.80;2.92;;;;;;;14.03;40.98;95612.91;4995376;23;20450;-61
2023/05/06 06:47:02;;;;;;;5.68;3.50;;;;;;;13.90;41.01;95614.53;4979732;28;20042;-61
2023/05/06 06:49:27;;;;;;;5.60;2.97;;;;;;;14.05;41.28;95616.22;4980527;28;20031;-60
2023/05/06 06:51:53;;;;;;;5.03;3.55;;;;;;;13.25;42.97;95614.72;4985506;28;20575;-61
2023/05/06 06:54:18;;;;;;;4.15;2.88;;;;;;;14.16;41.59;95618.34;4983380;28;20038;-61
2023/05/06 06:56:43;;;;;;;4.50;3.00;;;;;;;14.48;40.68;95616.97;4984131;28;20491;-61
2023/05/06 06:59:09;;;;;;;5.43;3.40;;;;;;;14.00;41.51;95618.69;4976023;28;20363;-61
2023/05/06 07:01:34;;;;;;;7.00;3.60;;;;;;;13.09;43.07;95618.53;4981126;28;20030;-61
2023/05/06 07:04:00;;;;;;;6.18;3.30;;;;;;;13.40;42.48;95620.00;4981633;28;20030;-61
2023/05/06 07:06:25;;;;;;;7.70;4.38;;;;;;;12.59;44.10;95627.31;4982528;28;20044;-61
2023/05/06 07:08:51;;;;;;;5.60;3.55;;;;;;;12.46;45.09;95625.34;4986139;28;20030;-61
2023/05/06 07:11:16;;;;;;;4.47;3.78;;;;;;;12.10;46.08;95627.84;4986021;28;20034;-61
2023/05/06 07:13:41;;;;;;;6.22;3.40;;;;;;;13.85;42.48;95630.31;4983570;28;20433;-61
2023/05/06 07:16:07;;;;;;;7.30;3.50;;;;;;;14.12;41.81;95630.47;4986076;28;20037;-61
2023/05/06 07:18:32;;;;;;;6.03;3.30;;;;;;;14.07;42.04;95632.91;4985743;28;20045;-61
2023/05/06 07:20:57;;;;;;;6.03;3.17;;;;;;;14.40;41.15;95631.38;4983894;28;20029;-61
2023/05/06 07:23:23;;;;;;;4.97;3.40;;;;;;;14.36;41.46;95630.94;4986419;28;20038;-61
2023/05/06 07:25:48;;;;;;;5.20;3.00;;;;;;;14.69;40.48;95635.53;4985617;28;20050;-61
2023/05/06 07:28:14;;;;;;;3.30;2.80;;;;;;;14.78;38.85;95625.50;4985445;28;20035;-61
2023/05/06 07:30:40;;;;;;;2.33;2.13;;;;;;;14.52;40.32;95636.97;4987375;28;20054;-61
2023/05/06 07:33:05;;;;;;;3.65;3.10;;;;;;;13.93;41.10;95640.88;4985124;28;20039;-61
2023/05/06 07:35:31;;;;;;;6.57;3.10;;;;;;;14.72;38.76;95635.13;4982646;28;20042;-62
2023/05/06 07:37:56;;;;;;;4.47;2.75;;;;;;;14.25;40.18;95639.56;4980982;28;20038;-66
2023/05/06 07:40:22;;;;;;;3.58;2.63;;;;;;;15.11;38.18;95631.91;4984878;28;20487;-62
2023/05/06 07:42:47;;;;;;;4.60;2.60;;;;;;;14.65;39.78;95638.84;4985645;28;20054;-71
2023/05/06 07:45:14;;;;;;;3.35;2.40;;;;;;;15.86;37.12;95638.81;4963446;28;20034;-71
2023/05/06 07:47:39;;;;;;;4.38;2.20;;;;;;;16.21;35.99;95634.97;4960714;28;20038;-70
2023/05/06 07:50:05;;;;;;;3.10;1.83;;;;;;;16.50;35.97;95643.53;4942324;28;20041;-71
2023/05/06 07:52:31;;;;;;;2.90;2.10;;;;;;;16.69;35.19;95634.75;4944511;28;20022;-71
2023/05/06 07:54:56;;;;;;;5.18;2.15;;;;;;;16.52;33.33;95644.13;4987112;28;20033;-70
2023/05/06 07:57:21;;;;;;;3.08;1.88;;;;;;;15.77;34.75;95645.44;4960840;28;20446;-71
2023/05/06 07:59:48;;;;;;;3.13;1.38;;;;;;;16.35;33.79;95643.00;4963806;28;20375;-71
2023/05/06 08:02:14;;;;;;;2.65;2.15;;;;;;;16.99;34.13;95639.47;4941460;28;20228;-70
2023/05/06 08:04:39;;;;;;;2.33;1.58;;;;;;;16.89;32.94;95642.66;4958914;28;20506;-70
2023/05/06 08:07:05;;;;;;;4.22;1.98;;;;;;;16.71;33.89;95638.88;4943619;28;20106;-70
2023/05/06 08:09:30;;;;;;;1.92;1.50;;;;;;;16.88;32.94;95641.00;4962820;28;20049;-71
2023/05/06 08:11:57;;;;;;;3.05;1.80;;;;;;;17.28;32.38;95651.47;4969576;28;20041;-70
2023/05/06 08:14:24;;;;;;;3.42;1.90;;;;;;;16.98;32.88;95649.44;4968810;28;20069;-70
2023/05/06 08:16:50;;;;;;;3.05;2.03;;;;;;;16.31;33.33;95647.94;4991314;28;20406;-70
2023/05/06 08:19:16;;;;;;;2.13;1.52;;;;;;;16.73;33.03;95654.78;4967376;28;20022;-70
2023/05/06 08:21:41;;;;;;;1.73;1.55;;;;;;;16.94;32.65;95650.91;4967934;28;20037;-70
2023/05/06 08:24:07;;;;;;;2.63;1.80;;;;;;;17.11;32.65;95658.44;4990356;28;20030;-71
2023/05/06 08:26:32;;;;;;;3.03;1.67;;;;;;;17.54;31.24;95656.84;4992653;28;20487;-71
2023/05/06 08:28:58;;;;;;;2.40;1.90;;;;;;;17.86;31.23;95658.63;4989682;28;20034;-71
2023/05/06 08:31:23;;;;;;;2.00;1.70;;;;;;;17.96;32.57;95661.63;4950778;28;20306;-71
2023/05/06 08:33:50;;;;;;;2.20;1.48;;;;;;;18.02;31.30;95659.91;4989258;28;20030;-70
2023/05/06 08:36:15;;;;;;;1.15;0.90;;;;;;;18.41;29.67;95655.09;4965773;28;20034;-71
2023/05/06 08:38:41;;;;;;;3.30;1.58;;;;;;;18.84;29.71;95654.31;4966066;28;20406;-71
2023/05/06 08:41:08;;;;;;;1.52;1.17;;;;;;;19.05;28.95;95659.19;4991185;28;20038;-71
2023/05/06 08:43:37;;;;;;;1.75;1.35;;;;;;;18.97;29.78;95662.22;4948722;28;20065;-71
2023/05/06 08:46:02;;;;;;;2.38;1.33;;;;;;;19.23;29.53;95664.75;4960741;28;20026;-71
2023/05/06 08:48:28;;;;;;;2.20;1.40;;;;;;;19.08;29.75;95663.31;4948879;28;20443;-71
2023/05/06 08:50:54;;;;;;;2.15;1.30;;;;;;;19.11;29.22;95652.06;4964679;28;20509;-71
2023/05/06 08:53:19;;;;;;;3.50;1.20;;;;;;;18.05;29.57;95656.75;4939493;28;20400;-71
2023/05/06 08:55:45;;;;;;;2.53;0.90;;;;;;;18.69;28.42;95655.56;4985495;28;20033;-71
2023/05/06 08:58:12;;;;;;;1.63;0.90;;;;;;;19.32;27.54;95653.41;4951292;28;20103;-71
2023/05/06 09:00:37;;;;;;;1.47;1.10;;;;;;;19.45;26.86;95648.81;4952447;28;20038;-71
2023/05/06 09:03:02;;;;;;;1.00;0.80;;;;;;;19.87;26.62;95641.63;4950014;28;20065;-71
2023/05/06 09:05:28;;;;;;;1.42;1.10;;;;;;;19.81;26.85;95651.50;4988787;28;20598;-71
2023/05/06 09:07:53;;;;;;;1.83;0.80;;;;;;;19.68;26.67;95644.47;4991227;28;20033;-71
2023/05/06 09:10:19;;;;;;;0.90;0.80;;;;;;;19.58;26.38;95651.28;4992200;28;20371;-71
2023/05/06 09:12:44;;;;;;;0.98;0.88;;;;;;;19.51;25.99;95649.75;4949627;28;20029;-71
2023/05/06 09:15:10;;;;;;;0.65;0.65;;;;;;;19.67;26.14;95642.81;4937133;28;20515;-71
2023/05/06 09:17:35;;;;;;;1.17;1.00;;;;;;;19.61;27.16;95641.06;4951525;28;20068;-71
2023/05/06 09:20:01;;;;;;;2.33;1.65;;;;;;;19.37;27.61;95649.97;4992550;28;20037;-71
2023/05/06 09:22:27;;;;;;;1.40;1.05;;;;;;;19.10;28.24;95650.38;4964581;28;20134;-71
2023/05/06 09:24:56;;;;;;;1.88;0.98;;;;;;;18.87;28.29;95657.38;4963045;28;20690;-71
2023/05/06 09:27:26;;;;;;;3.53;1.30;;;;;;;18.54;29.05;95653.25;4971576;28;20510;-71
2023/05/06 09:30:02;;;;;;;3.17;1.13;;;;;;;19.31;28.04;95654.44;4953031;28;20038;-71
2023/05/06 09:32:28;;;;;;;2.42;1.00;;;;;;;19.71;27.31;95650.22;4972630;28;20811;-71
2023/05/06 09:34:54;;;;;;;1.45;1.00;;;;;;;19.68;27.34;95647.97;4993873;28;20206;-71
2023/05/06 09:37:19;;;;;;;2.35;0.90;;;;;;;19.81;27.25;95655.03;4964104;28;20107;-71
2023/05/06 09:39:45;;;;;;;2.25;1.25;;;;;;;19.32;27.37;95653.41;4971941;28;20453;-71
2023/05/06 09:42:11;;;;;;;1.70;1.23;;;;;;;19.41;27.58;95645.75;4992748;28;20347;-71
2023/05/06 09:44:36;;;;;;;1.40;1.10;;;;;;;18.58;28.55;95651.78;4966168;28;20065;-71
2023/05/06 09:47:02;;;;;;;2.15;1.13;;;;;;;18.87;28.38;95651.16;4970576;28;20053;-71
2023/05/06 09:49:28;;;;;;;1.73;1.38;;;;;;;16.29;32.49;95647.34;4960346;28;20042;-71
2023/05/06 09:51:55;;;;;;;1.73;0.98;;;;;;;17.44;30.52;95651.16;4992354;28;20034;-71
2023/05/06 09:54:21;;;;;;;4.32;1.27;;;;;;;18.10;30.05;95648.84;4966864;28;20518;-71
2023/05/06 09:56:46;;;;;;;2.17;1.30;;;;;;;17.86;30.73;95645.16;4952314;28;20212;-72
2023/05/06 09:59:11;;;;;;;1.23;1.08;;;;;;;18.54;29.48;95651.41;4948733;28;20188;-70
2023/05/06 10:01:37;;;;;;;2.00;1.10;;;;;;;18.30;28.78;95651.28;4948928;28;20038;-70
2023/05/06 10:04:03;;;;;;;2.58;1.05;;;;;;;18.66;28.14;95645.25;4956529;28;20034;-71
2023/05/06 10:06:29;;;;;;;3.78;1.30;;;;;;;16.81;31.59;95635.69;4952591;28;20088;-73
2023/05/06 10:08:54;;;;;;;2.33;1.50;;;;;;;17.23;30.83;95637.88;4952171;28;20134;-73
2023/05/06 10:11:20;;;;;;;3.10;0.90;;;;;;;17.35;30.90;95638.00;4966771;28;20116;-73
2023/05/06 10:13:46;;;;;;;2.28;2.08;;;;;;;16.74;31.70;95626.84;4968087;28;20034;-73
2023/05/06 10:16:11;;;;;;;2.53;1.50;;;;;;;18.40;29.73;95637.28;4944971;28;20340;-73
2023/05/06 10:18:37;;;;;;;1.67;1.00;;;;;;;19.40;28.18;95635.19;4944363;28;20044;-73
2023/05/06 10:21:03;;;;;;;1.42;1.00;;;;;;;19.72;28.54;95630.25;4965141;28;20037;-73
2023/05/06 10:23:34;;;;;;;2.38;1.15;;;;;;;19.84;27.86;95624.84;4965540;28;20421;-73
2023/05/06 10:26:06;;;;;;;5.03;2.83;;;;;;;19.77;27.99;95631.41;4986390;28;20038;-73
2023/05/06 10:28:35;;;;;;;3.90;1.17;;;;;;;20.13;27.84;95626.81;4959738;28;20664;-73
2023/05/06 10:31:01;;;;;;;3.00;1.40;;;;;;;20.35;27.44;95623.44;4949948;28;20027;-74
2023/05/06 10:33:26;;;;;;;2.85;2.28;;;;;;;20.10;27.62;95619.97;4945505;28;20540;-74
2023/05/06 10:35:57;;;;;;;2.42;1.20;;;;;;;20.44;28.27;95618.47;4963650;28;20069;-74
2023/05/06 10:38:34;;;;;;;2.55;1.20;;;;;;;20.87;26.24;95617.09;4964978;28;20041;-73
2023/05/06 10:41:00;;;;;;;2.60;0.95;;;;;;;20.44;26.63;95607.66;4936462;28;20034;-74
2023/05/06 10:43:29;;;;;;;2.83;1.30;;;;;;;20.12;27.60;95614.34;4945445;28;20070;-71
2023/05/06 10:46:11;;;;;;;3.28;1.73;;;;;;;20.51;27.75;95608.34;4962427;28;20366;-72
2023/05/06 10:48:59;;;;;;;2.33;1.00;;;;;;;19.94;27.59;95607.19;4982692;28;20100;-72
2023/05/06 10:51:26;;;;;;;3.28;1.60;;;;;;;20.46;27.90;95613.63;4988757;28;20109;-72
2023/05/06 10:54:05;;;;;;;2.60;1.40;;;;;;;19.39;28.40;95609.25;4945337;28;20301;-72
2023/05/06 10:56:51;;;;;;;3.42;1.27;;;;;;;20.45;26.77;95607.41;4984518;28;20050;-71
2023/05/06 10:59:27;;;;;;;3.58;2.80;;;;;;;20.51;26.96;95604.78;4969741;28;20340;-71
2023/05/06 11:02:01;;;;;;;1.45;0.95;;;;;;;21.19;25.64;95601.38;4965008;28;20092;-71
2023/05/06 11:04:29;;;;;;;2.13;1.13;;;;;;;21.59;26.25;95608.47;4986305;28;20026;-72
2023/05/06 11:07:14;;;;;;;2.65;1.73;;;;;;;21.87;26.23;95593.16;4962619;28;20515;-72
2023/05/06 11:09:59;;;;;;;2.55;2.20;;;;;;;21.98;25.38;95593.28;4960582;28;20101;-72
2023/05/06 11:12:57;;;;;;;2.65;1.17;;;;;;;22.50;23.61;95597.38;4963148;28;20088;-73
2023/05/06 11:15:24;;;;;;;1.75;1.58;;;;;;;21.98;24.70;95591.41;4948402;28;20053;-73
2023/05/06 11:17:49;;;;;;;1.77;1.30;;;;;;;22.11;24.92;95597.50;4964425;28;20041;-74
2023/05/06 11:20:22;;;;;;;2.20;0.90;;;;;;;21.98;25.67;95596.00;4967971;28;20117;-74
2023/05/06 11:22:48;;;;;;;2.60;1.70;;;;;;;22.08;25.27;95589.88;4962014;28;20517;-71
2023/05/06 11:25:13;;;;;;;3.13;1.60;;;;;;;22.21;24.51;95599.53;4944398;28;20113;-71
2023/05/06 11:27:38;;;;;;;2.10;1.00;;;;;;;22.36;24.59;95599.69;4963484;28;20034;-71
2023/05/06 11:30:04;;;;;;;1.27;1.17;;;;;;;22.03;23.89;95601.50;4963705;28;20049;-71
2023/05/06 11:32:30;;;;;;;3.08;1.27;;;;;;;21.43;24.98;95596.63;4930530;28;20435;-71
2023/05/06 11:34:55;;;;;;;1.30;0.85;;;;;;;21.73;24.78;95589.16;4965038;28;20045;-71
2023/05/06 11:37:25;;;;;;;2.15;1.00;;;;;;;21.83;24.84;95593.91;4965284;28;20048;-71
2023/05/06 11:39:50;;;;;;;1.92;1.00;;;;;;;21.72;25.21;95588.34;4963227;28;20412;-71